Time;durP1;ratioP1;P1;durP2;ratioP2;P2;SDS_P1;SDS_P2;PMS_P1;PMS_P2;Temp;Humidity;BMP_temperature;BMP_pressure;BME280_temperature;BME280_humidity;BME280_pressure;Samples;Min_cycle;Max_cycle;Signal;HPM_P1;HPM_P2
2022/12/22 03:28:12;;;;;;;16.65;8.55;;;;;;;10.32;50.62;102153.28;4995562;28;20076;-66
2022/12/22 03:30:38;;;;;;;11.40;8.93;;;;;;;10.01;51.93;102147.00;4995057;28;20026;-65
2022/12/22 03:33:05;;;;;;;11.05;8.85;;;;;;;10.01;52.05;102136.28;4987220;28;20022;-65
2022/12/22 03:35:31;;;;;;;11.98;7.97;;;;;;;9.94;51.79;102129.97;4975860;28;20038;-66
2022/12/22 03:38:02;;;;;;;10.50;8.18;;;;;;;9.96;51.70;102127.94;4975435;28;20035;-65
2022/12/22 03:40:29;;;;;;;9.75;7.30;;;;;;;10.10;52.16;102123.72;4975704;28;20037;-65
2022/12/22 03:48:25;;;;;;;10.77;7.00;;;;;;;10.41;50.84;102138.03;4991587;28;20060;-65
2022/12/22 03:50:51;;;;;;;11.68;8.57;;;;;;;10.46;51.33;102141.03;4975241;28;20059;-65
2022/12/22 03:53:17;;;;;;;10.70;7.50;;;;;;;10.39;51.80;102142.72;4974810;28;20546;-65
2022/12/22 03:55:43;;;;;;;13.07;8.38;;;;;;;10.36;52.25;102155.63;4975224;28;20376;-65
2022/12/22 03:58:10;;;;;;;10.32;8.65;;;;;;;10.32;52.73;102155.94;4974817;28;20451;-65
2022/12/22 04:00:36;;;;;;;15.13;9.80;;;;;;;10.68;52.66;102151.97;4975080;28;20050;-66
2022/12/22 04:03:02;;;;;;;13.68;9.90;;;;;;;10.36;53.28;102153.78;4974640;28;20069;-66
2022/12/22 04:05:28;;;;;;;16.23;9.93;;;;;;;10.36;53.55;102153.78;4985456;28;20023;-66
2022/12/22 04:07:54;;;;;;;13.93;9.45;;;;;;;10.47;52.44;102153.41;4995287;28;20018;-65
2022/12/22 04:13:05;;;;;;;9.57;7.70;;;;;;;10.37;51.20;102151.94;5013660;28;20497;-65
2022/12/22 04:15:32;;;;;;;9.60;6.40;;;;;;;10.16;51.08;102137.25;4996391;28;20041;-65
2022/12/22 04:17:58;;;;;;;11.32;7.13;;;;;;;10.40;50.69;102135.53;4974688;28;20474;-66
2022/12/22 04:20:26;;;;;;;8.43;6.22;;;;;;;10.23;50.88;102132.91;4974664;28;20042;-66
2022/12/22 04:22:53;;;;;;;11.07;7.57;;;;;;;10.45;51.32;102133.19;4988149;28;20030;-66
2022/12/22 04:25:20;;;;;;;13.18;8.18;;;;;;;10.50;52.05;102128.13;4993960;28;20031;-66
2022/12/22 04:27:46;;;;;;;11.85;8.43;;;;;;;10.33;53.19;102130.03;4993913;28;20033;-66
2022/12/22 04:30:13;;;;;;;11.73;8.32;;;;;;;10.28;53.15;102137.75;4993955;28;20065;-66
2022/12/22 04:32:40;;;;;;;12.27;8.55;;;;;;;10.26;53.60;102145.94;4989661;28;20023;-65
2022/12/22 04:35:07;;;;;;;14.18;8.88;;;;;;;10.15;54.16;102148.09;4974089;28;20035;-64
2022/12/22 04:37:33;;;;;;;12.88;9.07;;;;;;;10.15;54.60;102153.47;4974285;28;20506;-64
2022/12/22 04:40:00;;;;;;;12.93;8.88;;;;;;;10.09;55.15;102149.63;4971508;28;20057;-66
2022/12/22 04:42:26;;;;;;;11.88;9.02;;;;;;;9.88;55.46;102152.84;4993257;28;20034;-66
2022/12/22 04:44:52;;;;;;;15.30;10.25;;;;;;;9.98;55.62;102140.13;4994379;28;20026;-66
2022/12/22 04:47:19;;;;;;;13.55;9.68;;;;;;;10.19;55.13;102139.56;5013101;28;20022;-66
2022/12/22 04:49:45;;;;;;;11.75;9.52;;;;;;;9.83;56.02;102144.50;5012055;28;20068;-65
2022/12/22 04:52:11;;;;;;;12.43;8.52;;;;;;;9.78;56.54;102138.84;4992587;28;20113;-66
2022/12/22 04:54:37;;;;;;;13.98;9.27;;;;;;;9.62;56.87;102142.34;4992427;28;20030;-65
2022/12/22 04:57:04;;;;;;;13.40;9.10;;;;;;;9.77;56.51;102142.50;4991492;28;20058;-65
2022/12/22 04:59:30;;;;;;;9.52;7.78;;;;;;;9.64;57.07;102143.00;4992816;28;20042;-65
2022/12/22 05:01:57;;;;;;;12.77;8.93;;;;;;;9.55;57.23;102136.00;4993182;28;20474;-66
2022/12/22 05:04:23;;;;;;;14.35;9.68;;;;;;;9.70;57.06;102137.00;4992404;28;20069;-66
2022/12/22 05:06:49;;;;;;;12.98;9.70;;;;;;;9.89;56.19;102143.00;4993714;28;20019;-65
2022/12/22 05:09:16;;;;;;;13.80;9.30;;;;;;;10.01;55.88;102130.94;4991584;28;20110;-65
2022/12/22 05:11:42;;;;;;;11.85;8.43;;;;;;;9.91;56.32;102132.97;4993067;28;20089;-65
2022/12/22 05:14:08;;;;;;;13.75;9.68;;;;;;;9.88;56.37;102135.97;4991724;28;20038;-65
2022/12/22 05:16:34;;;;;;;13.35;9.80;;;;;;;9.69;56.87;102132.66;4991123;28;20038;-65
2022/12/22 05:19:01;;;;;;;12.57;8.82;;;;;;;9.93;56.57;102131.78;4992810;28;20027;-65
2022/12/22 05:21:27;;;;;;;13.27;9.95;;;;;;;9.81;57.30;102130.47;4991490;28;20037;-65
2022/12/22 05:23:53;;;;;;;14.43;9.50;;;;;;;9.67;57.59;102134.66;4992576;28;20561;-65
2022/12/22 05:26:19;;;;;;;13.63;9.13;;;;;;;9.44;58.21;102128.34;4991296;28;20045;-65
2022/12/22 05:28:46;;;;;;;13.23;9.13;;;;;;;9.50;58.35;102133.84;4992425;28;20390;-65
2022/12/22 05:31:17;;;;;;;13.98;9.60;;;;;;;9.57;57.50;102125.97;4990684;28;20037;-65
2022/12/22 05:33:43;;;;;;;11.43;8.98;;;;;;;9.64;57.14;102121.63;4991189;28;20038;-65
2022/12/22 05:36:09;;;;;;;14.95;9.68;;;;;;;9.46;57.52;102126.31;4992697;28;20030;-65
2022/12/22 05:38:36;;;;;;;12.45;8.60;;;;;;;9.58;56.89;102130.31;4988836;28;20146;-65
2022/12/22 05:41:02;;;;;;;12.27;9.23;;;;;;;9.57;56.86;102128.66;4973193;28;20027;-65
2022/12/22 05:43:28;;;;;;;12.43;10.50;;;;;;;9.56;57.07;102140.34;4973325;28;20468;-65
2022/12/22 05:45:55;;;;;;;12.82;8.85;;;;;;;9.61;56.68;102142.53;4973461;28;20045;-65
2022/12/22 05:48:21;;;;;;;14.38;9.60;;;;;;;9.41;57.41;102140.19;4990608;28;20030;-65
2022/12/22 05:50:47;;;;;;;14.15;9.32;;;;;;;9.36;57.28;102139.00;4996452;28;20060;-65
2022/12/22 05:53:13;;;;;;;16.85;11.30;;;;;;;9.24;57.91;102139.31;5012195;28;20057;-65
2022/12/22 05:55:39;;;;;;;12.88;10.00;;;;;;;9.11;58.83;102146.16;5012671;28;20494;-65
2022/12/22 05:58:06;;;;;;;16.60;10.68;;;;;;;9.12;58.87;102147.84;5012190;28;20128;-66
2022/12/22 06:00:32;;;;;;;14.85;11.50;;;;;;;8.99;59.62;102150.97;5012150;28;20475;-65
2022/12/22 06:02:58;;;;;;;13.50;10.23;;;;;;;9.08;59.44;102149.16;5011937;28;20611;-65
2022/12/22 06:05:25;;;;;;;16.27;11.43;;;;;;;9.04;59.44;102153.16;4993299;28;20036;-65
2022/12/22 06:07:51;;;;;;;14.45;10.52;;;;;;;9.05;59.54;102146.78;4992348;28;20065;-65
2022/12/22 06:10:17;;;;;;;15.07;10.65;;;;;;;9.01;59.77;102146.31;4993125;28;20438;-65
2022/12/22 06:12:43;;;;;;;15.27;10.68;;;;;;;9.13;59.17;102146.81;4996158;28;20034;-65
2022/12/22 06:15:12;;;;;;;16.27;11.50;;;;;;;8.91;60.04;102148.28;4996349;28;20379;-65
2022/12/22 06:17:38;;;;;;;15.93;10.63;;;;;;;9.02;59.66;102145.31;4996289;28;20089;-65
2022/12/22 06:20:06;;;;;;;16.13;11.32;;;;;;;8.86;60.21;102140.75;4996318;28;20030;-65
2022/12/22 06:22:33;;;;;;;18.02;10.80;;;;;;;9.00;60.08;102136.63;4995935;28;20030;-65
2022/12/22 06:24:59;;;;;;;14.00;10.57;;;;;;;9.12;60.16;102132.63;4996398;28;20022;-65
2022/12/22 06:27:26;;;;;;;17.10;10.45;;;;;;;9.13;60.33;102130.81;4978531;28;20494;-65
2022/12/22 06:29:52;;;;;;;13.68;10.13;;;;;;;9.07;60.10;102136.81;4995891;28;20491;-65
2022/12/22 06:32:18;;;;;;;15.10;10.35;;;;;;;9.09;60.15;102142.81;4995756;28;20073;-65
2022/12/22 06:34:44;;;;;;;17.67;11.18;;;;;;;9.14;60.32;102138.66;4995995;28;20023;-65
2022/12/22 06:37:11;;;;;;;17.88;10.85;;;;;;;9.18;60.29;102147.19;4996362;28;20026;-65
2022/12/22 06:39:37;;;;;;;14.40;10.35;;;;;;;9.32;60.00;102145.66;4995687;28;20026;-65
2022/12/22 06:44:49;;;;;;;15.05;10.55;;;;;;;9.35;59.49;102140.84;4996131;28;20485;-63
2022/12/22 06:47:16;;;;;;;18.20;10.75;;;;;;;9.62;58.39;102142.34;4994391;28;20399;-63
2022/12/22 06:49:42;;;;;;;13.82;11.07;;;;;;;9.65;57.86;102150.03;4995908;28;20026;-65
2022/12/22 06:52:09;;;;;;;14.85;10.05;;;;;;;9.61;57.37;102139.84;4977936;28;20410;-65
2022/12/22 06:54:35;;;;;;;15.90;10.85;;;;;;;9.71;56.40;102135.16;4991009;28;20030;-65
2022/12/22 06:57:01;;;;;;;19.42;12.40;;;;;;;9.43;57.93;102129.31;4995351;28;20023;-65
2022/12/22 06:59:27;;;;;;;19.25;11.60;;;;;;;9.41;57.91;102131.31;4995547;28;20057;-65
2022/12/22 07:01:54;;;;;;;17.25;11.55;;;;;;;9.49;57.46;102125.97;4995275;28;20029;-65
2022/12/22 07:04:20;;;;;;;17.98;11.75;;;;;;;9.52;57.32;102128.31;4995540;28;20114;-65
2022/12/22 07:06:47;;;;;;;18.77;12.55;;;;;;;9.33;57.84;102125.97;4984790;28;20030;-65
2022/12/22 07:09:13;;;;;;;18.73;12.98;;;;;;;9.04;59.13;102116.59;4975941;28;20178;-65
2022/12/22 07:11:39;;;;;;;19.65;13.02;;;;;;;9.13;59.19;102112.94;4979682;28;20068;-65
2022/12/22 07:14:06;;;;;;;19.25;12.93;;;;;;;9.14;58.31;102108.44;4995486;28;20026;-65
2022/12/22 07:16:33;;;;;;;19.42;13.30;;;;;;;9.11;58.21;102101.59;4995265;28;20030;-65
2022/12/22 07:18:59;;;;;;;19.60;12.32;;;;;;;8.94;58.71;102102.56;4995394;28;20538;-65
2022/12/22 07:21:25;;;;;;;26.88;14.30;;;;;;;9.07;58.40;102105.59;4995047;28;20037;-65
2022/12/22 07:23:52;;;;;;;19.58;12.63;;;;;;;9.06;58.34;102106.59;4994983;28;20026;-65
2022/12/22 07:26:18;;;;;;;19.70;13.93;;;;;;;8.96;58.50;102109.41;4995430;28;20084;-65
2022/12/22 07:28:44;;;;;;;20.63;13.13;;;;;;;8.91;58.59;102110.91;5005234;28;20498;-65
2022/12/22 07:31:11;;;;;;;21.60;13.15;;;;;;;8.94;58.74;102113.25;4993987;28;20038;-65
2022/12/22 07:33:38;;;;;;;20.52;13.90;;;;;;;8.77;59.44;102119.53;4982300;28;20038;-65
2022/12/22 07:36:11;;;;;;;22.50;12.85;;;;;;;8.70;59.61;102117.50;4975293;28;20041;-65
2022/12/22 07:38:40;;;;;;;23.98;14.35;;;;;;;8.49;60.06;102118.94;4975719;28;20521;-65
2022/12/22 07:43:55;;;;;;;20.77;13.52;;;;;;;8.67;59.33;102125.03;4936702;28;20398;-64
2022/12/22 07:46:23;;;;;;;24.70;13.85;;;;;;;8.59;59.87;102138.31;4989826;28;20097;-66
2022/12/22 07:51:35;;;;;;;27.83;14.85;;;;;;;8.46;60.52;102152.97;4986432;28;20061;-65
2022/12/22 07:54:05;;;;;;;44.22;22.13;;;;;;;8.25;63.58;102157.00;4994673;28;20037;-65
2022/12/22 07:56:31;;;;;;;47.20;24.55;;;;;;;8.40;64.29;102150.94;4994717;28;20106;-65
2022/12/22 07:58:58;;;;;;;54.58;26.42;;;;;;;8.41;64.46;102154.44;4994577;28;20061;-65
2022/12/22 08:01:24;;;;;;;58.42;27.08;;;;;;;8.45;64.87;102145.13;4994595;28;20599;-65
2022/12/22 08:03:51;;;;;;;55.22;28.75;;;;;;;8.33;65.53;102147.22;5012974;28;20030;-65
2022/12/22 08:06:18;;;;;;;61.70;31.20;;;;;;;8.41;65.88;102157.94;5014364;28;20364;-65
2022/12/22 08:08:44;;;;;;;67.70;31.23;;;;;;;8.25;66.97;102162.31;5014549;28;20025;-66
2022/12/22 08:11:10;;;;;;;85.10;39.47;;;;;;;8.07;68.94;102165.06;5014082;28;20022;-65
2022/12/22 08:13:37;;;;;;;91.00;40.65;;;;;;;8.05;70.11;102157.22;5003880;28;20467;-65
2022/12/22 08:16:06;;;;;;;93.00;42.58;;;;;;;7.85;71.23;102164.56;4994486;28;20547;-65
2022/12/22 08:18:33;;;;;;;98.90;43.08;;;;;;;7.73;71.97;102162.31;4994442;28;20055;-65
2022/12/22 08:21:00;;;;;;;92.80;43.58;;;;;;;7.63;72.49;102157.06;4994027;28;20797;-65
2022/12/22 08:23:26;;;;;;;86.38;42.65;;;;;;;7.53;73.00;102153.66;4994106;28;20519;-65
2022/12/22 08:26:15;;;;;;;90.97;41.20;;;;;;;7.55;72.60;102146.34;4995013;28;20018;-65
2022/12/22 08:28:59;;;;;;;76.50;35.60;;;;;;;7.54;71.51;102129.50;4970825;28;20046;-65
2022/12/22 08:31:28;;;;;;;64.25;30.63;;;;;;;7.44;70.70;102133.25;4992680;28;20113;-65
2022/12/22 08:33:57;;;;;;;56.03;28.75;;;;;;;7.34;69.83;102125.38;4959495;28;20456;-65
2022/12/22 08:36:24;;;;;;;55.65;29.40;;;;;;;7.41;70.22;102121.09;4992197;28;20030;-65
2022/12/22 08:38:51;;;;;;;60.05;29.85;;;;;;;7.40;69.84;102122.94;4992426;28;20499;-65
2022/12/22 08:41:48;;;;;;;64.95;32.47;;;;;;;7.38;69.98;102118.72;4988017;28;20038;-65
2022/12/22 08:44:04;;;;;;;66.60;31.70;;;;;;;7.41;70.01;102121.09;4976492;28;20035;-65
2022/12/22 08:46:31;;;;;;;61.53;31.83;;;;;;;7.50;69.75;102125.50;4981395;28;20076;-65
2022/12/22 08:48:57;;;;;;;72.78;33.08;;;;;;;7.44;70.24;102123.47;4975179;28;20034;-65
2022/12/22 08:51:23;;;;;;;74.40;34.80;;;;;;;7.28;71.20;102140.13;4975898;28;20701;-65
2022/12/22 08:53:49;;;;;;;68.80;34.30;;;;;;;7.23;71.20;102144.25;4984388;28;20439;-65
2022/12/22 08:56:15;;;;;;;72.35;35.72;;;;;;;7.04;71.97;102145.22;4973953;28;20045;-65
2022/12/22 08:58:42;;;;;;;77.47;35.88;;;;;;;7.20;71.36;102145.38;4981169;28;20169;-65
2022/12/22 09:01:16;;;;;;;67.72;33.55;;;;;;;7.20;71.54;102142.72;4993513;28;20030;-65
2022/12/22 09:03:42;;;;;;;61.55;31.85;;;;;;;7.33;70.44;102142.34;4993751;28;20041;-65
2022/12/22 09:06:08;;;;;;;75.45;36.90;;;;;;;7.20;71.77;102134.72;4994197;28;20034;-64
2022/12/22 09:08:34;;;;;;;80.88;38.95;;;;;;;7.21;71.96;102125.72;4993358;28;20045;-65
2022/12/22 09:11:04;;;;;;;77.97;36.67;;;;;;;7.11;72.26;102119.69;4992974;28;20038;-64
2022/12/22 09:13:30;;;;;;;79.85;38.95;;;;;;;7.10;72.67;102117.97;4993056;28;20030;-65
2022/12/22 09:15:56;;;;;;;78.28;36.85;;;;;;;7.19;72.11;102113.56;4993712;28;20448;-65
2022/12/22 09:18:23;;;;;;;72.20;36.35;;;;;;;7.05;72.38;102106.94;4992811;28;20479;-65
2022/12/22 09:20:54;;;;;;;73.28;34.65;;;;;;;7.08;72.27;102094.16;4992449;28;20054;-65
2022/12/22 09:23:20;;;;;;;63.20;33.03;;;;;;;7.14;71.83;102087.41;4992988;28;20032;-65
2022/12/22 09:25:47;;;;;;;62.78;32.72;;;;;;;7.01;72.06;102082.47;4993449;28;20033;-65
2022/12/22 09:28:13;;;;;;;53.15;29.20;;;;;;;7.11;71.99;102088.56;4992822;28;20153;-65
2022/12/22 09:30:39;;;;;;;48.90;28.00;;;;;;;7.12;71.75;102076.06;4992652;28;20026;-65
2022/12/22 09:33:05;;;;;;;63.67;29.92;;;;;;;7.03;72.27;102079.66;4992815;28;20468;-65
2022/12/22 09:35:32;;;;;;;51.33;27.75;;;;;;;7.21;71.49;102067.16;4993043;28;20081;-65
2022/12/22 09:37:58;;;;;;;55.92;30.17;;;;;;;7.17;71.69;102076.47;4992773;28;20030;-65
2022/12/22 09:40:26;;;;;;;56.92;28.85;;;;;;;7.22;71.52;102083.97;4992736;28;20034;-65
2022/12/22 09:42:52;;;;;;;57.42;30.73;;;;;;;7.17;71.63;102075.63;4992236;28;20042;-65
2022/12/22 09:45:21;;;;;;;55.63;29.45;;;;;;;7.14;71.88;102074.91;4991767;28;20058;-65
2022/12/22 09:47:55;;;;;;;59.05;30.65;;;;;;;7.03;72.30;102069.84;4985279;28;20049;-65
2022/12/22 09:50:23;;;;;;;51.03;29.70;;;;;;;7.07;72.01;102057.91;4985847;28;20050;-65
2022/12/22 09:53:01;;;;;;;54.85;29.35;;;;;;;7.07;72.05;102043.75;4989138;28;20035;-65
2022/12/22 09:55:41;;;;;;;50.65;27.08;;;;;;;7.04;72.04;102039.56;4979105;28;20585;-65
2022/12/22 09:58:19;;;;;;;44.85;25.38;;;;;;;7.13;72.17;102041.31;4989837;28;20035;-66
2022/12/22 10:00:56;;;;;;;48.53;26.13;;;;;;;7.15;72.17;102051.78;4991444;28;20023;-65
2022/12/22 10:03:29;;;;;;;44.53;25.02;;;;;;;7.31;71.59;102049.25;4992383;28;20374;-65
2022/12/22 10:06:33;;;;;;;46.38;25.90;;;;;;;7.36;71.08;102048.81;4992537;28;20054;-65
2022/12/22 10:09:17;;;;;;;47.83;25.88;;;;;;;7.45;70.89;102053.22;4955353;28;20491;-65
2022/12/22 10:11:54;;;;;;;45.80;25.50;;;;;;;7.35;71.15;102052.47;4975802;28;20464;-66
2022/12/22 10:14:24;;;;;;;49.45;25.80;;;;;;;7.44;71.04;102056.88;4992453;28;20027;-66
2022/12/22 10:17:18;;;;;;;47.90;25.98;;;;;;;7.85;69.78;102049.94;4992439;28;20026;-65
2022/12/22 10:19:47;;;;;;;52.28;28.38;;;;;;;7.81;69.45;102059.25;4992205;28;20502;-65
2022/12/22 10:22:42;;;;;;;62.55;30.02;;;;;;;7.58;70.13;102048.28;4992009;28;20030;-65
2022/12/22 10:25:27;;;;;;;59.45;30.67;;;;;;;7.53;70.59;102045.25;4992034;28;20058;-65
2022/12/22 10:27:59;;;;;;;62.23;32.30;;;;;;;7.72;70.34;102046.03;4992211;28;20487;-65
2022/12/22 10:30:31;;;;;;;58.35;31.27;;;;;;;7.65;70.70;102036.00;4992158;28;20271;-65
2022/12/22 10:33:02;;;;;;;54.38;27.83;;;;;;;7.67;70.74;102042.03;4992479;28;20030;-65
2022/12/22 10:35:53;;;;;;;53.65;29.67;;;;;;;7.73;70.06;102045.06;4992223;28;20056;-65
2022/12/22 10:38:51;;;;;;;58.75;30.25;;;;;;;7.81;69.85;102056.59;4992008;28;20209;-65
2022/12/22 10:41:20;;;;;;;58.35;29.92;;;;;;;7.60;70.35;102056.94;4992053;28;20026;-65
2022/12/22 10:43:58;;;;;;;59.03;30.00;;;;;;;7.43;71.00;102046.34;4991955;28;20627;-65
2022/12/22 10:46:36;;;;;;;58.15;28.88;;;;;;;7.49;70.84;102043.88;4992118;28;20534;-65
2022/12/22 10:49:12;;;;;;;62.88;29.92;;;;;;;7.33;72.08;102033.16;4992158;28;20037;-65
2022/12/22 10:51:39;;;;;;;;;;;;;;;7.10;72.69;102024.78;4992454;28;20499;-65
2022/12/22 10:54:05;;;;;;;51.15;28.50;;;;;;;7.36;71.72;102028.31;4991898;28;20386;-65
2022/12/22 10:56:33;;;;;;;53.13;29.52;;;;;;;7.40;71.57;102026.19;4993200;28;20023;-65
2022/12/22 10:59:02;;;;;;;51.95;27.85;;;;;;;7.38;71.44;102030.81;4995523;28;20042;-65
2022/12/22 11:01:34;;;;;;;51.63;28.30;;;;;;;7.62;70.88;102030.16;4995660;28;20084;-65
2022/12/22 11:04:24;;;;;;;51.30;29.15;;;;;;;7.63;70.68;102027.34;4988956;28;20027;-65
2022/12/22 11:06:53;;;;;;;49.47;27.23;;;;;;;7.45;71.18;102031.91;4994120;28;20495;-65
2022/12/22 11:09:20;;;;;;;52.42;27.05;;;;;;;7.30;71.65;102028.13;4988432;28;20054;-65
2022/12/22 11:11:51;;;;;;;49.90;27.13;;;;;;;7.55;71.18;102031.78;4995326;28;20027;-65
2022/12/22 11:14:47;;;;;;;49.88;27.40;;;;;;;7.72;70.51;102022.03;4993375;28;20088;-65
2022/12/22 11:17:22;;;;;;;51.22;27.30;;;;;;;7.53;71.01;102031.94;4995428;28;20483;-65
2022/12/22 11:20:13;;;;;;;48.73;27.40;;;;;;;7.74;70.21;102039.56;4983810;28;20458;-65
2022/12/22 11:23:13;;;;;;;47.53;26.95;;;;;;;7.68;70.48;102037.53;4975427;28;20023;-65
2022/12/22 11:26:08;;;;;;;48.30;25.90;;;;;;;7.62;70.63;102046.16;4975721;28;20026;-65
2022/12/22 11:28:42;;;;;;;46.83;26.43;;;;;;;7.46;70.77;102038.06;4975909;28;20023;-65
2022/12/22 11:31:34;;;;;;;52.60;27.48;;;;;;;7.50;71.10;102050.91;4983233;28;20026;-65
2022/12/22 11:34:22;;;;;;;49.22;27.40;;;;;;;7.37;71.33;102055.78;4994857;28;20109;-65
2022/12/22 11:37:19;;;;;;;51.58;27.60;;;;;;;7.31;71.54;102051.91;4994790;28;20026;-65
2022/12/22 11:40:04;;;;;;;53.65;27.63;;;;;;;7.11;72.48;102045.13;4994848;28;20034;-65
2022/12/22 11:42:42;;;;;;;57.80;29.83;;;;;;;7.11;72.67;102043.28;4994806;28;20049;-65
2022/12/22 11:45:40;;;;;;;49.88;28.27;;;;;;;7.03;73.06;102053.84;4994832;28;20502;-65
2022/12/22 11:48:21;;;;;;;58.03;31.90;;;;;;;6.96;73.64;102075.94;4995060;28;20034;-65
2022/12/22 11:50:53;;;;;;;71.85;37.00;;;;;;;6.95;73.95;102072.44;4994447;28;20030;-65
2022/12/22 11:53:46;;;;;;;75.63;38.15;;;;;;;6.85;74.03;102069.00;4994949;28;20034;-65
2022/12/22 11:56:22;;;;;;;71.03;36.50;;;;;;;6.97;74.27;102070.44;4994530;28;20069;-65
2022/12/22 11:59:13;;;;;;;73.40;38.20;;;;;;;7.02;74.19;102057.50;4994537;28;20442;-65
2022/12/22 12:01:42;;;;;;;77.35;38.03;;;;;;;6.97;74.46;102046.50;4975761;28;20030;-65
2022/12/22 12:04:20;;;;;;;83.68;41.05;;;;;;;7.01;74.54;102042.53;4975245;28;20034;-65
2022/12/22 12:07:21;;;;;;;87.28;40.05;;;;;;;6.71;75.43;102041.06;4976479;28;20026;-65
2022/12/22 12:10:19;;;;;;;90.60;43.38;;;;;;;6.61;76.51;102046.50;5013834;28;20068;-65
2022/12/22 12:13:10;;;;;;;88.88;41.67;;;;;;;6.70;76.37;102043.91;4994493;28;20044;-65
2022/12/22 12:15:58;;;;;;;92.63;43.40;;;;;;;6.76;76.03;102040.63;4986012;28;20050;-65
2022/12/22 12:18:40;;;;;;;95.20;43.10;;;;;;;6.69;76.65;102053.69;4993757;28;20034;-65
2022/12/22 12:21:17;;;;;;;90.82;44.75;;;;;;;6.82;75.54;102062.13;4976187;28;20034;-65
2022/12/22 12:24:23;;;;;;;89.75;42.80;;;;;;;6.50;76.58;102060.00;4993974;28;20031;-65
2022/12/22 12:27:15;;;;;;;97.18;45.00;;;;;;;6.24;78.04;102048.38;4994170;28;20027;-65
2022/12/22 12:30:07;;;;;;;96.22;46.22;;;;;;;6.44;77.69;102054.41;4993804;28;20027;-65
2022/12/22 12:32:51;;;;;;;109.05;50.72;;;;;;;6.37;78.03;102056.00;4980992;28;20046;-65
2022/12/22 12:35:50;;;;;;;109.78;48.67;;;;;;;6.20;78.93;102055.81;4993876;28;20018;-65
2022/12/22 12:38:39;;;;;;;117.82;54.33;;;;;;;5.92;80.09;102043.50;4994096;28;20118;-65
2022/12/22 12:41:17;;;;;;;114.30;54.30;;;;;;;5.80;81.28;102026.88;4993638;28;20052;-65
2022/12/22 12:43:46;;;;;;;112.03;52.03;;;;;;;5.87;80.78;102019.97;4994017;28;20066;-64
2022/12/22 12:46:49;;;;;;;114.57;52.65;;;;;;;5.98;80.58;102027.78;4993635;28;20060;-69
2022/12/22 12:49:33;;;;;;;117.80;54.20;;;;;;;5.90;80.81;102027.66;4993954;28;20030;-66
2022/12/22 12:52:01;;;;;;;118.60;56.30;;;;;;;5.86;80.95;102020.97;4993447;28;20071;-65
2022/12/22 12:54:33;;;;;;;123.70;55.22;;;;;;;5.73;82.00;102026.63;4993710;28;20025;-65
2022/12/22 12:57:09;;;;;;;116.45;55.35;;;;;;;5.78;81.76;102032.34;4993393;28;20054;-65
2022/12/22 12:59:42;;;;;;;112.82;53.85;;;;;;;5.55;82.75;102038.94;4993277;28;20047;-66
2022/12/22 13:02:27;;;;;;;114.70;54.50;;;;;;;5.60;82.86;102036.69;4992459;28;20022;-66
2022/12/22 13:05:11;;;;;;;118.45;53.63;;;;;;;5.66;82.93;102038.78;4993328;28;20034;-66
2022/12/22 13:08:14;;;;;;;115.53;53.25;;;;;;;5.69;82.44;102042.97;4993206;28;20545;-65
2022/12/22 13:10:45;;;;;;;112.00;55.63;;;;;;;5.48;83.49;102021.94;4997399;28;20478;-66
2022/12/22 13:13:32;;;;;;;122.50;55.92;;;;;;;5.44;84.11;102013.44;4996058;28;20041;-65
2022/12/22 13:16:01;;;;;;;133.02;59.55;;;;;;;5.37;84.29;102009.66;4966464;28;20038;-66
2022/12/22 13:18:33;;;;;;;126.55;56.92;;;;;;;5.37;84.37;102004.34;4991594;28;20506;-65
2022/12/22 13:21:01;;;;;;;124.88;57.05;;;;;;;5.30;84.91;102001.44;4990651;28;20110;-65
2022/12/22 13:23:40;;;;;;;123.55;57.65;;;;;;;5.28;84.36;102000.75;4989362;28;20387;-68
2022/12/22 13:26:17;;;;;;;116.45;54.17;;;;;;;5.33;85.08;102002.13;4991966;28;20034;-62
2022/12/22 13:28:49;;;;;;;119.93;54.42;;;;;;;5.31;84.83;101996.94;4991783;28;20022;-65
2022/12/22 13:31:26;;;;;;;114.38;54.72;;;;;;;5.45;84.36;102001.00;4989384;28;20026;-68
2022/12/22 13:34:00;;;;;;;107.75;51.75;;;;;;;5.62;83.40;102007.38;4997380;28;20022;-62
2022/12/22 13:36:27;;;;;;;115.80;53.00;;;;;;;5.54;83.24;102000.09;4995982;28;20033;-66
2022/12/22 13:39:02;;;;;;;101.75;50.53;;;;;;;5.68;83.17;101996.16;5007468;28;20378;-68
2022/12/22 13:41:30;;;;;;;111.25;51.38;;;;;;;5.62;83.05;101992.25;4981092;28;20034;-67
2022/12/22 13:44:05;;;;;;;102.80;50.08;;;;;;;5.55;83.16;101996.47;4996626;28;20034;-64
2022/12/22 13:46:36;;;;;;;97.53;47.28;;;;;;;5.69;82.76;102003.13;5012167;28;20113;-61
2022/12/22 13:49:06;;;;;;;99.32;46.22;;;;;;;5.67;82.72;102000.63;4992791;28;20590;-61
2022/12/22 13:51:37;;;;;;;90.93;46.03;;;;;;;5.62;82.68;101992.25;5010442;28;20025;-61
2022/12/22 13:54:43;;;;;;;93.93;46.55;;;;;;;5.72;82.42;102005.50;4994399;28;20486;-61
2022/12/22 13:57:17;;;;;;;95.28;46.40;;;;;;;5.94;81.68;102006.97;4926631;29;20044;-61
2022/12/22 13:59:47;;;;;;;100.38;46.58;;;;;;;5.84;81.59;102009.66;4913572;29;20057;-61
2022/12/22 14:02:19;;;;;;;84.90;42.47;;;;;;;5.97;81.46;101996.06;4970949;28;20499;-61
2022/12/22 14:05:12;;;;;;;90.10;44.55;;;;;;;5.98;81.53;102003.88;4992630;28;20023;-61
2022/12/22 14:07:40;;;;;;;89.72;41.75;;;;;;;5.97;81.52;102012.00;4998848;28;20041;-61
2022/12/22 14:10:06;;;;;;;87.22;43.30;;;;;;;5.94;81.30;102009.63;4994483;28;20093;-63
2022/12/22 14:12:45;;;;;;;88.35;43.63;;;;;;;5.83;82.15;102018.63;4992945;28;20029;-65
2022/12/22 14:15:18;;;;;;;91.80;43.50;;;;;;;5.79;82.34;102025.19;4984705;28;20034;-67
2022/12/22 14:17:44;;;;;;;96.47;44.10;;;;;;;5.71;82.94;102017.09;4981978;28;20025;-61
2022/12/22 14:20:28;;;;;;;93.47;45.72;;;;;;;5.70;83.11;102020.75;5004306;28;20487;-62
2022/12/22 14:23:16;;;;;;;86.40;44.60;;;;;;;5.73;83.07;102021.31;5008555;28;20038;-63
2022/12/22 14:25:45;;;;;;;94.78;46.72;;;;;;;5.71;82.75;102020.59;5008052;28;20029;-59
2022/12/22 14:28:14;;;;;;;92.50;43.65;;;;;;;5.65;82.99;102021.19;4995639;28;20034;-63
2022/12/22 14:30:45;;;;;;;91.25;44.90;;;;;;;5.55;83.68;102023.00;4993684;28;20081;-64
2022/12/22 14:33:28;;;;;;;89.38;44.97;;;;;;;5.52;83.95;102024.16;5008245;28;20089;-61
2022/12/22 14:36:14;;;;;;;89.43;43.58;;;;;;;5.51;84.00;102033.13;4996306;28;20022;-61
2022/12/22 14:38:43;;;;;;;92.75;45.00;;;;;;;5.50;84.21;102038.56;4996588;28;20501;-62
2022/12/22 14:41:41;;;;;;;85.28;43.47;;;;;;;5.48;83.92;102040.50;5011490;28;20398;-62
2022/12/22 14:44:23;;;;;;;87.18;43.38;;;;;;;5.47;84.00;102036.19;4994293;28;20030;-63
2022/12/22 14:47:14;;;;;;;81.90;42.50;;;;;;;5.50;83.90;102036.75;4991052;28;20031;-63
2022/12/22 14:49:43;;;;;;;89.75;42.28;;;;;;;5.51;83.63;102043.72;4976637;28;20038;-63
2022/12/22 14:52:22;;;;;;;84.07;42.92;;;;;;;5.49;83.68;102051.00;4990860;28;20042;-62
2022/12/22 14:54:51;;;;;;;85.35;43.35;;;;;;;5.44;83.52;102047.09;5008937;28;20029;-63
2022/12/22 14:57:34;;;;;;;88.38;43.25;;;;;;;5.35;84.77;102050.63;5011176;28;20052;-62
2022/12/22 15:00:08;;;;;;;93.38;45.83;;;;;;;5.29;84.92;102044.06;4995545;28;20154;-65
2022/12/22 15:02:47;;;;;;;85.78;43.50;;;;;;;5.40;84.46;102051.03;5004027;28;20053;-64
2022/12/22 15:05:24;;;;;;;80.32;41.83;;;;;;;5.40;84.31;102045.72;5010952;28;20092;-64
2022/12/22 15:07:52;;;;;;;79.13;41.17;;;;;;;5.49;83.93;102035.06;5015154;28;20029;-63
2022/12/22 15:10:18;;;;;;;79.18;41.15;;;;;;;5.49;83.72;102029.75;5000254;28;20030;-65
2022/12/22 15:12:46;;;;;;;75.53;39.60;;;;;;;5.51;83.68;102024.31;4979088;28;20037;-65
2022/12/22 15:15:16;;;;;;;74.50;39.13;;;;;;;5.40;84.04;102027.97;4995776;28;20030;-66
2022/12/22 15:17:48;;;;;;;79.22;39.63;;;;;;;5.44;83.81;102018.75;5012876;28;20029;-65
2022/12/22 15:20:23;;;;;;;72.30;37.47;;;;;;;5.49;83.41;102023.59;5000404;28;20149;-63
2022/12/22 15:22:50;;;;;;;73.15;37.30;;;;;;;5.52;83.08;102024.16;4992372;28;20037;-65
2022/12/22 15:25:25;;;;;;;73.00;37.50;;;;;;;5.51;83.27;102032.28;4994841;28;20054;-65